sensor_id;sensor_type;location;lat;lon;timestamp;pressure;altitude;pressure_sealevel;temperature;humidity
32197;BME280;18697;42.770;23.400;2023-11-21T00:00:31;95430.69;;;6.57;68.37
32197;BME280;18697;42.770;23.400;2023-11-21T00:02:56;95436.31;;;6.41;68.58
32197;BME280;18697;42.770;23.400;2023-11-21T00:05:22;95430.91;;;6.50;68.88
32197;BME280;18697;42.770;23.400;2023-11-21T00:07:48;95438.75;;;6.51;68.78
32197;BME280;18697;42.770;23.400;2023-11-21T00:10:13;95444.38;;;6.48;68.21
32197;BME280;18697;42.770;23.400;2023-11-21T00:12:39;95440.84;;;6.47;67.94
32197;BME280;18697;42.770;23.400;2023-11-21T00:15:08;95430.81;;;6.41;68.09
32197;BME280;18697;42.770;23.400;2023-11-21T00:17:39;95440.41;;;6.36;67.87
32197;BME280;18697;42.770;23.400;2023-11-21T00:20:06;95448.47;;;6.43;68.12
32197;BME280;18697;42.770;23.400;2023-11-21T00:22:35;95441.50;;;6.39;68.03
32197;BME280;18697;42.770;23.400;2023-11-21T00:25:01;95450.00;;;6.44;68.12
32197;BME280;18697;42.770;23.400;2023-11-21T00:27:28;95438.66;;;6.42;68.79
32197;BME280;18697;42.770;23.400;2023-11-21T00:29:54;95434.13;;;6.48;68.81
32197;BME280;18697;42.770;23.400;2023-11-21T00:32:19;95438.75;;;6.51;68.87
32197;BME280;18697;42.770;23.400;2023-11-21T00:34:44;95427.94;;;6.57;68.71
32197;BME280;18697;42.770;23.400;2023-11-21T00:37:10;95439.31;;;6.59;68.53
32197;BME280;18697;42.770;23.400;2023-11-21T00:39:35;95430.47;;;6.64;69.00
32197;BME280;18697;42.770;23.400;2023-11-21T00:42:01;95431.69;;;6.63;68.96
32197;BME280;18697;42.770;23.400;2023-11-21T00:44:26;95435.78;;;6.58;69.21
32197;BME280;18697;42.770;23.400;2023-11-21T00:46:51;95431.03;;;6.59;69.49
32197;BME280;18697;42.770;23.400;2023-11-21T00:49:17;95424.63;;;6.62;69.51
32197;BME280;18697;42.770;23.400;2023-11-21T00:51:42;95434.13;;;6.61;69.60
32197;BME280;18697;42.770;23.400;2023-11-21T00:54:09;95426.50;;;6.65;69.45
32197;BME280;18697;42.770;23.400;2023-11-21T00:56:34;95422.25;;;6.73;69.06
32197;BME280;18697;42.770;23.400;2023-11-21T00:58:59;95412.31;;;6.76;68.70
32197;BME280;18697;42.770;23.400;2023-11-21T01:01:25;95416.47;;;6.20;69.78
32197;BME280;18697;42.770;23.400;2023-11-21T01:03:50;95420.66;;;5.71;72.19
32197;BME280;18697;42.770;23.400;2023-11-21T01:06:16;95417.59;;;5.40;73.91
32197;BME280;18697;42.770;23.400;2023-11-21T01:08:43;95425.00;;;5.14;75.29
32197;BME280;18697;42.770;23.400;2023-11-21T01:11:09;95419.94;;;5.25;75.78
32197;BME280;18697;42.770;23.400;2023-11-21T01:13:37;95411.59;;;5.57;73.96
32197;BME280;18697;42.770;23.400;2023-11-21T01:16:02;95409.00;;;5.79;72.83
32197;BME280;18697;42.770;23.400;2023-11-21T01:18:29;95413.38;;;5.93;72.04
32197;BME280;18697;42.770;23.400;2023-11-21T01:20:54;95421.72;;;5.89;71.51
32197;BME280;18697;42.770;23.400;2023-11-21T01:23:20;95421.81;;;5.86;71.47
32197;BME280;18697;42.770;23.400;2023-11-21T01:25:45;95432.09;;;5.98;71.56
32197;BME280;18697;42.770;23.400;2023-11-21T01:28:10;95413.81;;;5.91;70.91
32197;BME280;18697;42.770;23.400;2023-11-21T01:30:36;95416.44;;;6.08;70.67
32197;BME280;18697;42.770;23.400;2023-11-21T01:33:02;95413.91;;;6.13;70.27
32197;BME280;18697;42.770;23.400;2023-11-21T01:35:28;95421.53;;;6.22;69.99
32197;BME280;18697;42.770;23.400;2023-11-21T01:37:53;95419.66;;;6.19;69.42
32197;BME280;18697;42.770;23.400;2023-11-21T01:40:19;95418.00;;;6.21;69.11
32197;BME280;18697;42.770;23.400;2023-11-21T01:42:44;95424.50;;;6.28;69.01
32197;BME280;18697;42.770;23.400;2023-11-21T01:45:12;95421.88;;;6.24;68.67
32197;BME280;18697;42.770;23.400;2023-11-21T01:47:38;95421.31;;;6.16;68.62
32197;BME280;18697;42.770;23.400;2023-11-21T01:50:06;95410.25;;;6.04;68.73
32197;BME280;18697;42.770;23.400;2023-11-21T01:52:34;95411.69;;;6.08;68.66
32197;BME280;18697;42.770;23.400;2023-11-21T01:55:00;95417.88;;;6.12;68.42
32197;BME280;18697;42.770;23.400;2023-11-21T01:57:26;95420.19;;;6.14;68.25
32197;BME280;18697;42.770;23.400;2023-11-21T01:59:54;95414.91;;;6.19;68.07
32197;BME280;18697;42.770;23.400;2023-11-21T02:02:19;95411.50;;;6.15;67.71
32197;BME280;18697;42.770;23.400;2023-11-21T02:04:45;95407.84;;;6.18;67.85
32197;BME280;18697;42.770;23.400;2023-11-21T02:07:10;95395.81;;;6.12;67.65
32197;BME280;18697;42.770;23.400;2023-11-21T02:09:35;95406.53;;;6.10;67.59
32197;BME280;18697;42.770;23.400;2023-11-21T02:12:04;95401.44;;;5.96;68.50
32197;BME280;18697;42.770;23.400;2023-11-21T02:14:30;95392.72;;;5.98;68.22
32197;BME280;18697;42.770;23.400;2023-11-21T02:16:56;95411.25;;;5.97;67.75
32197;BME280;18697;42.770;23.400;2023-11-21T02:19:23;95409.59;;;6.00;68.45
32197;BME280;18697;42.770;23.400;2023-11-21T02:21:52;95401.44;;;5.96;68.70
32197;BME280;18697;42.770;23.400;2023-11-21T02:24:22;95398.69;;;5.96;68.85
32197;BME280;18697;42.770;23.400;2023-11-21T02:26:48;95393.41;;;5.89;68.66
32197;BME280;18697;42.770;23.400;2023-11-21T02:29:19;95397.53;;;5.81;69.15
32197;BME280;18697;42.770;23.400;2023-11-21T02:31:51;95404.84;;;5.87;68.90
32197;BME280;18697;42.770;23.400;2023-11-21T02:34:17;95402.63;;;5.82;68.44
32197;BME280;18697;42.770;23.400;2023-11-21T02:36:44;95404.28;;;5.80;68.41
32197;BME280;18697;42.770;23.400;2023-11-21T02:39:10;95404.72;;;5.78;68.40
32197;BME280;18697;42.770;23.400;2023-11-21T02:41:39;95403.53;;;5.50;69.42
32197;BME280;18697;42.770;23.400;2023-11-21T02:44:06;95400.63;;;5.41;70.38
32197;BME280;18697;42.770;23.400;2023-11-21T02:46:34;95397.69;;;5.48;70.14
32197;BME280;18697;42.770;23.400;2023-11-21T02:49:04;95403.88;;;5.52;70.28
32197;BME280;18697;42.770;23.400;2023-11-21T02:51:31;95403.75;;;5.56;70.03
32197;BME280;18697;42.770;23.400;2023-11-21T02:53:56;95408.41;;;5.59;69.75
32197;BME280;18697;42.770;23.400;2023-11-21T02:56:28;95415.38;;;5.64;69.07
32197;BME280;18697;42.770;23.400;2023-11-21T02:58:56;95402.47;;;5.60;69.06
32197;BME280;18697;42.770;23.400;2023-11-21T03:01:22;95416.00;;;5.55;69.05
32197;BME280;18697;42.770;23.400;2023-11-21T03:03:49;95419.84;;;5.57;68.94
32197;BME280;18697;42.770;23.400;2023-11-21T03:06:17;95413.53;;;5.44;68.93
32197;BME280;18697;42.770;23.400;2023-11-21T03:08:42;95417.88;;;5.29;69.76
32197;BME280;18697;42.770;23.400;2023-11-21T03:11:08;95410.91;;;5.24;70.42
32197;BME280;18697;42.770;23.400;2023-11-21T03:13:33;95420.97;;;5.31;70.23
32197;BME280;18697;42.770;23.400;2023-11-21T03:15:58;95420.38;;;5.23;70.77
32197;BME280;18697;42.770;23.400;2023-11-21T03:18:24;95423.81;;;5.27;70.98
32197;BME280;18697;42.770;23.400;2023-11-21T03:20:50;95411.59;;;5.28;70.73
32197;BME280;18697;42.770;23.400;2023-11-21T03:23:16;95399.22;;;5.20;70.83
32197;BME280;18697;42.770;23.400;2023-11-21T03:25:42;95410.06;;;5.27;70.69
32197;BME280;18697;42.770;23.400;2023-11-21T03:28:08;95408.22;;;5.37;70.90
32197;BME280;18697;42.770;23.400;2023-11-21T03:30:33;95406.81;;;5.45;70.93
32197;BME280;18697;42.770;23.400;2023-11-21T03:32:59;95410.03;;;5.56;70.65
32197;BME280;18697;42.770;23.400;2023-11-21T03:35:24;95403.88;;;5.52;70.22
32197;BME280;18697;42.770;23.400;2023-11-21T03:37:49;95404.78;;;5.62;69.53
32197;BME280;18697;42.770;23.400;2023-11-21T03:40:15;95407.84;;;5.51;69.77
32197;BME280;18697;42.770;23.400;2023-11-21T03:42:40;95394.72;;;5.55;70.15
32197;BME280;18697;42.770;23.400;2023-11-21T03:45:07;95402.66;;;5.53;69.93
32197;BME280;18697;42.770;23.400;2023-11-21T03:47:33;95405.38;;;5.41;70.85
32197;BME280;18697;42.770;23.400;2023-11-21T03:49:58;95403.97;;;5.49;71.01
32197;BME280;18697;42.770;23.400;2023-11-21T03:52:24;95406.53;;;5.56;70.72
32197;BME280;18697;42.770;23.400;2023-11-21T03:54:50;95387.34;;;5.52;70.88
32197;BME280;18697;42.770;23.400;2023-11-21T03:57:15;95395.38;;;5.47;70.91
32197;BME280;18697;42.770;23.400;2023-11-21T03:59:41;95399.75;;;5.44;70.90
32197;BME280;18697;42.770;23.400;2023-11-21T04:02:07;95384.97;;;5.38;70.70
32197;BME280;18697;42.770;23.400;2023-11-21T04:04:34;95380.72;;;5.50;70.79
32197;BME280;18697;42.770;23.400;2023-11-21T04:06:59;95387.66;;;5.54;70.53
32197;BME280;18697;42.770;23.400;2023-11-21T04:09:24;95390.75;;;5.56;69.75
32197;BME280;18697;42.770;23.400;2023-11-21T04:11:51;95396.13;;;5.47;70.22
32197;BME280;18697;42.770;23.400;2023-11-21T04:14:17;95381.34;;;5.41;70.93
32197;BME280;18697;42.770;23.400;2023-11-21T04:16:42;95385.50;;;5.33;72.47
32197;BME280;18697;42.770;23.400;2023-11-21T04:19:08;95391.16;;;5.42;72.12
32197;BME280;18697;42.770;23.400;2023-11-21T04:21:36;95381.16;;;5.48;71.67
32197;BME280;18697;42.770;23.400;2023-11-21T04:24:01;95379.31;;;5.58;71.24
32197;BME280;18697;42.770;23.400;2023-11-21T04:26:27;95381.28;;;5.57;71.25
32197;BME280;18697;42.770;23.400;2023-11-21T04:28:52;95378.84;;;5.47;71.36
32197;BME280;18697;42.770;23.400;2023-11-21T04:31:17;95377.59;;;4.61;73.95
32197;BME280;18697;42.770;23.400;2023-11-21T04:33:43;95384.91;;;4.19;77.14
32197;BME280;18697;42.770;23.400;2023-11-21T04:36:10;95382.59;;;4.50;76.90
32197;BME280;18697;42.770;23.400;2023-11-21T04:38:35;95379.38;;;4.84;75.34
32197;BME280;18697;42.770;23.400;2023-11-21T04:41:01;95386.25;;;4.92;75.10
32197;BME280;18697;42.770;23.400;2023-11-21T04:43:26;95381.06;;;4.94;75.01
32197;BME280;18697;42.770;23.400;2023-11-21T04:45:51;95382.78;;;5.04;74.83
32197;BME280;18697;42.770;23.400;2023-11-21T04:48:17;95376.22;;;5.14;74.17
32197;BME280;18697;42.770;23.400;2023-11-21T04:50:42;95376.56;;;5.16;73.91
32197;BME280;18697;42.770;23.400;2023-11-21T04:53:07;95385.38;;;5.24;73.56
32197;BME280;18697;42.770;23.400;2023-11-21T04:55:33;95393.78;;;5.33;73.47
32197;BME280;18697;42.770;23.400;2023-11-21T04:58:01;95403.47;;;5.38;73.18
32197;BME280;18697;42.770;23.400;2023-11-21T05:00:27;95397.88;;;5.41;73.06
32197;BME280;18697;42.770;23.400;2023-11-21T05:02:52;95393.91;;;5.42;73.06
32197;BME280;18697;42.770;23.400;2023-11-21T05:05:17;95399.44;;;5.42;73.13
32197;BME280;18697;42.770;23.400;2023-11-21T05:07:43;95401.50;;;5.38;73.03
32197;BME280;18697;42.770;23.400;2023-11-21T05:10:08;95395.84;;;5.29;73.50
32197;BME280;18697;42.770;23.400;2023-11-21T05:12:37;95394.84;;;5.23;73.64
32197;BME280;18697;42.770;23.400;2023-11-21T05:15:04;95390.09;;;5.23;73.44
32197;BME280;18697;42.770;23.400;2023-11-21T05:17:33;95389.53;;;5.16;73.68
32197;BME280;18697;42.770;23.400;2023-11-21T05:19:59;95391.88;;;5.30;74.13
32197;BME280;18697;42.770;23.400;2023-11-21T05:22:28;95398.59;;;5.16;74.15
32197;BME280;18697;42.770;23.400;2023-11-21T05:24:54;95390.78;;;4.99;74.03
32197;BME280;18697;42.770;23.400;2023-11-21T05:27:19;95396.75;;;4.81;75.13
32197;BME280;18697;42.770;23.400;2023-11-21T05:29:44;95403.03;;;4.81;76.14
32197;BME280;18697;42.770;23.400;2023-11-21T05:32:10;95403.53;;;4.76;76.49
32197;BME280;18697;42.770;23.400;2023-11-21T05:34:35;95402.78;;;4.76;76.77
32197;BME280;18697;42.770;23.400;2023-11-21T05:37:01;95402.09;;;4.72;76.66
32197;BME280;18697;42.770;23.400;2023-11-21T05:39:26;95409.81;;;4.77;76.91
32197;BME280;18697;42.770;23.400;2023-11-21T05:41:53;95404.91;;;4.84;77.14
32197;BME280;18697;42.770;23.400;2023-11-21T05:44:19;95407.31;;;4.99;77.00
32197;BME280;18697;42.770;23.400;2023-11-21T05:46:44;95409.00;;;5.09;76.63
32197;BME280;18697;42.770;23.400;2023-11-21T05:49:10;95409.81;;;4.77;77.10
32197;BME280;18697;42.770;23.400;2023-11-21T05:51:37;95407.31;;;4.82;77.60
32197;BME280;18697;42.770;23.400;2023-11-21T05:54:02;95408.75;;;5.03;76.68
32197;BME280;18697;42.770;23.400;2023-11-21T05:56:27;95407.31;;;4.82;77.22
32197;BME280;18697;42.770;23.400;2023-11-21T05:58:53;95401.56;;;4.93;76.52
32197;BME280;18697;42.770;23.400;2023-11-21T06:01:19;95398.00;;;5.09;76.08
32197;BME280;18697;42.770;23.400;2023-11-21T06:03:44;95400.34;;;5.23;76.18
32197;BME280;18697;42.770;23.400;2023-11-21T06:06:10;95409.97;;;5.31;75.91
32197;BME280;18697;42.770;23.400;2023-11-21T06:08:36;95410.44;;;5.42;76.63
32197;BME280;18697;42.770;23.400;2023-11-21T06:11:01;95406.63;;;5.52;75.66
32197;BME280;18697;42.770;23.400;2023-11-21T06:13:27;95405.22;;;5.60;74.16
32197;BME280;18697;42.770;23.400;2023-11-21T06:15:53;95406.88;;;5.71;73.35
32197;BME280;18697;42.770;23.400;2023-11-21T06:18:18;95412.63;;;5.76;73.03
32197;BME280;18697;42.770;23.400;2023-11-21T06:20:47;95405.59;;;5.75;72.65
32197;BME280;18697;42.770;23.400;2023-11-21T06:23:12;95410.88;;;5.82;72.86
32197;BME280;18697;42.770;23.400;2023-11-21T06:25:39;95417.16;;;5.83;72.22
32197;BME280;18697;42.770;23.400;2023-11-21T06:28:05;95416.72;;;5.84;72.12
32197;BME280;18697;42.770;23.400;2023-11-21T06:30:30;95420.97;;;5.89;72.10
32197;BME280;18697;42.770;23.400;2023-11-21T06:32:56;95423.19;;;5.94;71.89
32197;BME280;18697;42.770;23.400;2023-11-21T06:35:22;95418.09;;;5.92;71.88
32197;BME280;18697;42.770;23.400;2023-11-21T06:37:47;95414.22;;;6.03;71.83
32197;BME280;18697;42.770;23.400;2023-11-21T06:40:13;95420.75;;;6.09;72.03
32197;BME280;18697;42.770;23.400;2023-11-21T06:42:43;95424.72;;;6.20;72.12
32197;BME280;18697;42.770;23.400;2023-11-21T06:45:10;95428.25;;;6.08;71.68
32197;BME280;18697;42.770;23.400;2023-11-21T06:47:35;95412.38;;;6.12;71.75
32197;BME280;18697;42.770;23.400;2023-11-21T06:50:01;95424.94;;;6.13;71.45
32197;BME280;18697;42.770;23.400;2023-11-21T06:52:26;95430.34;;;5.34;73.52
32197;BME280;18697;42.770;23.400;2023-11-21T06:54:52;95425.28;;;5.61;74.18
32197;BME280;18697;42.770;23.400;2023-11-21T06:57:17;95424.22;;;5.42;73.94
32197;BME280;18697;42.770;23.400;2023-11-21T06:59:44;95434.28;;;5.20;75.23
32197;BME280;18697;42.770;23.400;2023-11-21T07:02:09;95427.16;;;5.35;74.73
32197;BME280;18697;42.770;23.400;2023-11-21T07:04:35;95440.97;;;5.48;74.60
32197;BME280;18697;42.770;23.400;2023-11-21T07:07:02;95435.19;;;5.58;74.76
32197;BME280;18697;42.770;23.400;2023-11-21T07:09:28;95429.94;;;5.77;74.03
32197;BME280;18697;42.770;23.400;2023-11-21T07:11:54;95440.09;;;5.80;74.10
32197;BME280;18697;42.770;23.400;2023-11-21T07:14:20;95437.94;;;6.00;74.08
32197;BME280;18697;42.770;23.400;2023-11-21T07:16:46;95432.78;;;6.15;72.85
32197;BME280;18697;42.770;23.400;2023-11-21T07:19:12;95429.91;;;6.31;72.30
32197;BME280;18697;42.770;23.400;2023-11-21T07:21:38;95437.97;;;6.38;71.50
32197;BME280;18697;42.770;23.400;2023-11-21T07:24:08;95433.25;;;6.51;71.77
32197;BME280;18697;42.770;23.400;2023-11-21T07:26:34;95432.97;;;6.71;70.74
32197;BME280;18697;42.770;23.400;2023-11-21T07:29:01;95435.03;;;6.92;70.71
32197;BME280;18697;42.770;23.400;2023-11-21T07:31:27;95421.84;;;7.22;69.58
32197;BME280;18697;42.770;23.400;2023-11-21T07:33:54;95438.56;;;7.40;68.15
32197;BME280;18697;42.770;23.400;2023-11-21T07:36:23;95441.91;;;7.79;67.38
32197;BME280;18697;42.770;23.400;2023-11-21T07:38:49;95433.38;;;7.86;66.93
32197;BME280;18697;42.770;23.400;2023-11-21T07:41:15;95425.38;;;8.10;65.86
32197;BME280;18697;42.770;23.400;2023-11-21T07:43:41;95430.84;;;8.32;65.32
32197;BME280;18697;42.770;23.400;2023-11-21T07:46:06;95433.50;;;8.66;65.13
32197;BME280;18697;42.770;23.400;2023-11-21T07:48:33;95424.94;;;9.01;63.85
32197;BME280;18697;42.770;23.400;2023-11-21T07:50:59;95416.84;;;9.25;62.87
32197;BME280;18697;42.770;23.400;2023-11-21T07:53:25;95418.38;;;9.44;63.52
32197;BME280;18697;42.770;23.400;2023-11-21T07:55:51;95410.22;;;9.49;62.45
32197;BME280;18697;42.770;23.400;2023-11-21T07:58:17;95395.72;;;9.73;61.95
32197;BME280;18697;42.770;23.400;2023-11-21T08:00:42;95400.63;;;9.87;61.76
32197;BME280;18697;42.770;23.400;2023-11-21T08:03:08;95399.97;;;10.10;60.47
32197;BME280;18697;42.770;23.400;2023-11-21T08:05:33;95404.09;;;10.33;59.57
32197;BME280;18697;42.770;23.400;2023-11-21T08:07:59;95397.47;;;10.31;60.24
32197;BME280;18697;42.770;23.400;2023-11-21T08:10:24;95397.16;;;10.38;59.23
32197;BME280;18697;42.770;23.400;2023-11-21T08:12:50;95387.44;;;10.33;59.75
32197;BME280;18697;42.770;23.400;2023-11-21T08:15:16;95394.66;;;10.40;60.68
32197;BME280;18697;42.770;23.400;2023-11-21T08:17:41;95397.16;;;10.38;60.11
32197;BME280;18697;42.770;23.400;2023-11-21T08:20:06;95387.31;;;10.18;61.37
32197;BME280;18697;42.770;23.400;2023-11-21T08:22:33;95387.94;;;10.13;61.57
32197;BME280;18697;42.770;23.400;2023-11-21T08:24:59;95382.38;;;10.13;62.15
32197;BME280;18697;42.770;23.400;2023-11-21T08:27:25;95394.41;;;10.10;62.07
32197;BME280;18697;42.770;23.400;2023-11-21T08:29:50;95389.63;;;10.11;62.73
32197;BME280;18697;42.770;23.400;2023-11-21T08:32:17;95407.66;;;10.15;62.81
32197;BME280;18697;42.770;23.400;2023-11-21T08:34:43;95398.88;;;10.17;62.75
32197;BME280;18697;42.770;23.400;2023-11-21T08:37:10;95401.81;;;10.23;63.45
32197;BME280;18697;42.770;23.400;2023-11-21T08:39:36;95391.66;;;10.10;63.80
32197;BME280;18697;42.770;23.400;2023-11-21T08:42:03;95391.94;;;10.22;64.15
32197;BME280;18697;42.770;23.400;2023-11-21T08:44:28;95392.56;;;10.26;64.64
32197;BME280;18697;42.770;23.400;2023-11-21T08:46:55;95384.53;;;10.28;64.46
32197;BME280;18697;42.770;23.400;2023-11-21T08:49:21;95375.56;;;10.33;64.74
32197;BME280;18697;42.770;23.400;2023-11-21T08:51:46;95377.34;;;10.45;64.33
32197;BME280;18697;42.770;23.400;2023-11-21T08:54:11;95373.75;;;10.53;64.20
32197;BME280;18697;42.770;23.400;2023-11-21T08:56:37;95373.88;;;10.59;64.39
32197;BME280;18697;42.770;23.400;2023-11-21T08:59:02;95366.94;;;10.64;63.61
32197;BME280;18697;42.770;23.400;2023-11-21T09:01:29;95366.59;;;10.71;63.85
32197;BME280;18697;42.770;23.400;2023-11-21T09:03:57;95359.22;;;10.92;63.58
32197;BME280;18697;42.770;23.400;2023-11-21T09:06:23;95361.56;;;11.08;62.81
32197;BME280;18697;42.770;23.400;2023-11-21T09:08:49;95348.28;;;11.12;62.31
32197;BME280;18697;42.770;23.400;2023-11-21T09:11:14;95345.03;;;11.13;62.94
32197;BME280;18697;42.770;23.400;2023-11-21T09:13:39;95349.59;;;11.16;62.32
32197;BME280;18697;42.770;23.400;2023-11-21T09:16:05;95330.91;;;11.02;61.07
32197;BME280;18697;42.770;23.400;2023-11-21T09:18:31;95321.84;;;10.93;61.82
32197;BME280;18697;42.770;23.400;2023-11-21T09:20:56;95311.09;;;10.85;61.50
32197;BME280;18697;42.770;23.400;2023-11-21T09:23:21;95299.09;;;10.79;62.10
32197;BME280;18697;42.770;23.400;2023-11-21T09:25:47;95298.25;;;10.88;61.80
32197;BME280;18697;42.770;23.400;2023-11-21T09:28:15;95289.88;;;10.97;61.67
32197;BME280;18697;42.770;23.400;2023-11-21T09:30:42;95297.19;;;11.09;60.80
32197;BME280;18697;42.770;23.400;2023-11-21T09:33:09;95288.94;;;11.15;61.02
32197;BME280;18697;42.770;23.400;2023-11-21T09:35:37;95273.41;;;11.23;60.97
32197;BME280;18697;42.770;23.400;2023-11-21T09:38:03;95268.84;;;11.35;60.11
32197;BME280;18697;42.770;23.400;2023-11-21T09:40:35;95252.34;;;11.46;59.77
32197;BME280;18697;42.770;23.400;2023-11-21T09:43:06;95237.59;;;11.55;60.21
32197;BME280;18697;42.770;23.400;2023-11-21T09:45:35;95237.56;;;11.25;60.57
32197;BME280;18697;42.770;23.400;2023-11-21T09:48:01;95241.59;;;11.24;60.18
32197;BME280;18697;42.770;23.400;2023-11-21T09:50:28;95233.47;;;11.35;60.68
32197;BME280;18697;42.770;23.400;2023-11-21T09:55:29;95209.19;;;11.36;60.95
32197;BME280;18697;42.770;23.400;2023-11-21T09:57:56;95209.09;;;11.45;60.83
32197;BME280;18697;42.770;23.400;2023-11-21T10:00:22;95205.47;;;11.09;61.16
32197;BME280;18697;42.770;23.400;2023-11-21T10:02:52;95205.44;;;10.56;64.47
32197;BME280;18697;42.770;23.400;2023-11-21T10:05:18;95205.06;;;9.92;66.34
32197;BME280;18697;42.770;23.400;2023-11-21T10:07:45;95211.03;;;9.99;66.64
32197;BME280;18697;42.770;23.400;2023-11-21T10:10:13;95200.81;;;10.05;66.03
32197;BME280;18697;42.770;23.400;2023-11-21T10:12:42;95206.91;;;10.18;66.44
32197;BME280;18697;42.770;23.400;2023-11-21T10:15:10;95197.00;;;10.50;65.46
32197;BME280;18697;42.770;23.400;2023-11-21T10:17:38;95197.75;;;10.51;65.61
32197;BME280;18697;42.770;23.400;2023-11-21T10:20:10;95193.13;;;10.72;64.25
32197;BME280;18697;42.770;23.400;2023-11-21T10:22:40;95190.59;;;10.98;63.95
32197;BME280;18697;42.770;23.400;2023-11-21T10:25:10;95200.00;;;11.15;63.42
32197;BME280;18697;42.770;23.400;2023-11-21T10:27:36;95184.09;;;11.45;62.95
32197;BME280;18697;42.770;23.400;2023-11-21T10:30:05;95185.13;;;11.18;62.21
32197;BME280;18697;42.770;23.400;2023-11-21T10:32:30;95183.88;;;11.19;62.16
32197;BME280;18697;42.770;23.400;2023-11-21T10:34:58;95174.38;;;11.70;61.77
32197;BME280;18697;42.770;23.400;2023-11-21T10:37:25;95176.47;;;11.75;59.26
32197;BME280;18697;42.770;23.400;2023-11-21T10:39:57;95162.50;;;12.04;59.03
32197;BME280;18697;42.770;23.400;2023-11-21T10:42:23;95159.72;;;12.25;59.43
32197;BME280;18697;42.770;23.400;2023-11-21T10:44:49;95162.75;;;11.86;58.59
32197;BME280;18697;42.770;23.400;2023-11-21T10:47:16;95160.03;;;12.27;58.65
32197;BME280;18697;42.770;23.400;2023-11-21T10:49:44;95151.66;;;12.47;59.11
32197;BME280;18697;42.770;23.400;2023-11-21T10:52:10;95153.34;;;12.59;60.01
32197;BME280;18697;42.770;23.400;2023-11-21T10:54:43;95143.81;;;12.71;59.83
32197;BME280;18697;42.770;23.400;2023-11-21T10:57:10;95146.19;;;12.78;59.30
32197;BME280;18697;42.770;23.400;2023-11-21T10:59:36;95140.63;;;12.78;58.53
32197;BME280;18697;42.770;23.400;2023-11-21T11:02:18;95138.59;;;12.79;58.72
32197;BME280;18697;42.770;23.400;2023-11-21T11:04:47;95137.28;;;12.74;59.54
32197;BME280;18697;42.770;23.400;2023-11-21T11:07:14;95126.56;;;12.67;60.03
32197;BME280;18697;42.770;23.400;2023-11-21T11:09:41;95121.75;;;12.68;59.83
32197;BME280;18697;42.770;23.400;2023-11-21T11:12:08;95125.75;;;12.61;59.97
32197;BME280;18697;42.770;23.400;2023-11-21T11:14:35;95111.00;;;12.55;60.35
32197;BME280;18697;42.770;23.400;2023-11-21T11:17:01;95114.50;;;12.50;60.67
32197;BME280;18697;42.770;23.400;2023-11-21T11:19:27;95106.47;;;12.37;60.41
32197;BME280;18697;42.770;23.400;2023-11-21T11:34:54;95096.59;;;12.36;60.96
32197;BME280;18697;42.770;23.400;2023-11-21T11:37:23;95089.56;;;12.41;61.82
32197;BME280;18697;42.770;23.400;2023-11-21T11:39:49;95087.00;;;12.37;61.30
32197;BME280;18697;42.770;23.400;2023-11-21T11:42:16;95085.94;;;12.35;60.02
32197;BME280;18697;42.770;23.400;2023-11-21T11:47:14;95088.47;;;12.33;61.21
32197;BME280;18697;42.770;23.400;2023-11-21T11:50:03;95086.94;;;12.32;61.58
32197;BME280;18697;42.770;23.400;2023-11-21T11:55:00;95099.09;;;12.34;61.58
32197;BME280;18697;42.770;23.400;2023-11-21T11:57:25;95100.38;;;12.33;61.38
32197;BME280;18697;42.770;23.400;2023-11-21T12:00:10;95101.91;;;12.34;62.19
32197;BME280;18697;42.770;23.400;2023-11-21T12:02:38;95090.97;;;12.31;62.56
32197;BME280;18697;42.770;23.400;2023-11-21T12:05:11;95090.63;;;12.23;63.50
32197;BME280;18697;42.770;23.400;2023-11-21T12:10:15;95094.66;;;12.22;64.68
32197;BME280;18697;42.770;23.400;2023-11-21T12:12:47;95094.50;;;12.11;64.74
32197;BME280;18697;42.770;23.400;2023-11-21T12:15:13;95093.97;;;12.07;65.59
32197;BME280;18697;42.770;23.400;2023-11-21T12:17:43;95094.16;;;12.03;66.02
32197;BME280;18697;42.770;23.400;2023-11-21T12:20:18;95094.16;;;12.03;66.76
32197;BME280;18697;42.770;23.400;2023-11-21T12:22:48;95090.34;;;12.01;66.99
32197;BME280;18697;42.770;23.400;2023-11-21T12:25:18;95092.75;;;11.93;67.18
32197;BME280;18697;42.770;23.400;2023-11-21T12:27:48;95100.81;;;11.91;68.53
32197;BME280;18697;42.770;23.400;2023-11-21T12:30:16;95092.44;;;11.86;69.68
32197;BME280;18697;42.770;23.400;2023-11-21T12:32:48;95087.16;;;11.88;69.46
32197;BME280;18697;42.770;23.400;2023-11-21T12:35:14;95079.97;;;11.81;69.72
32197;BME280;18697;42.770;23.400;2023-11-21T12:37:40;95083.25;;;11.79;70.46
32197;BME280;18697;42.770;23.400;2023-11-21T12:40:09;95080.94;;;11.78;71.09
32197;BME280;18697;42.770;23.400;2023-11-21T12:42:37;95082.00;;;11.80;71.20
32197;BME280;18697;42.770;23.400;2023-11-21T12:47:50;95073.84;;;11.77;71.57
32197;BME280;18697;42.770;23.400;2023-11-21T12:50:20;95061.16;;;11.76;71.93
32197;BME280;18697;42.770;23.400;2023-11-21T12:52:49;95052.81;;;11.76;73.03
32197;BME280;18697;42.770;23.400;2023-11-21T12:55:18;95049.09;;;11.79;72.84
32197;BME280;18697;42.770;23.400;2023-11-21T12:57:45;95047.84;;;11.80;73.20
32197;BME280;18697;42.770;23.400;2023-11-21T13:00:12;95042.06;;;11.83;73.69
32197;BME280;18697;42.770;23.400;2023-11-21T13:02:50;95044.47;;;11.76;74.01
32197;BME280;18697;42.770;23.400;2023-11-21T13:05:24;95054.03;;;11.55;73.95
32197;BME280;18697;42.770;23.400;2023-11-21T13:07:49;95049.13;;;11.64;74.94
32197;BME280;18697;42.770;23.400;2023-11-21T13:10:16;95040.06;;;11.49;74.72
32197;BME280;18697;42.770;23.400;2023-11-21T13:12:45;95027.56;;;11.24;76.83
32197;BME280;18697;42.770;23.400;2023-11-21T13:15:14;95030.41;;;10.50;79.83
32197;BME280;18697;42.770;23.400;2023-11-21T13:17:46;95032.91;;;10.63;80.68
32197;BME280;18697;42.770;23.400;2023-11-21T13:20:12;95031.75;;;10.84;79.73